Time;durP1;ratioP1;P1;durP2;ratioP2;P2;SDS_P1;SDS_P2;PMS_P1;PMS_P2;Temp;Humidity;BMP_temperature;BMP_pressure;BME280_temperature;BME280_humidity;BME280_pressure;Samples;Min_cycle;Max_cycle;Signal;HPM_P1;HPM_P2
2021/05/22 00:00:48;;;;;;;0.75;0.20;;;11.40;99.90;;;;;;1914314;75;21062;-75
2021/05/22 00:03:14;;;;;;;2.08;0.40;;;11.40;99.90;;;;;;1914361;75;21116;-75
2021/05/22 00:05:41;;;;;;;0.37;0.10;;;11.30;99.90;;;;;;1914248;75;21067;-75
2021/05/22 00:08:07;;;;;;;1.35;0.20;;;11.30;99.90;;;;;;1914218;75;21067;-75
2021/05/22 00:10:33;;;;;;;0.20;0.20;;;11.30;99.90;;;;;;1914259;75;21074;-74
2021/05/22 00:12:59;;;;;;;2.25;0.40;;;11.30;99.90;;;;;;1914214;75;21039;-75
2021/05/22 00:15:25;;;;;;;0.28;0.20;;;11.30;99.90;;;;;;1914318;75;21152;-75
2021/05/22 00:17:51;;;;;;;0.80;0.30;;;11.30;99.90;;;;;;1914302;75;21128;-75
2021/05/22 00:20:17;;;;;;;1.65;0.30;;;11.20;99.90;;;;;;1914424;75;21046;-74
2021/05/22 00:22:45;;;;;;;0.78;0.45;;;11.20;99.90;;;;;;1914400;75;21435;-74
2021/05/22 00:25:11;;;;;;;4.47;0.40;;;11.20;99.90;;;;;;1914275;75;21066;-75
2021/05/22 00:27:37;;;;;;;0.10;0.10;;;11.20;99.90;;;;;;1914324;75;21066;-75
2021/05/22 00:30:03;;;;;;;1.20;0.50;;;11.20;99.90;;;;;;1914456;75;21105;-75
2021/05/22 00:32:29;;;;;;;0.47;0.25;;;11.10;99.90;;;;;;1914288;75;21062;-75
2021/05/22 00:34:55;;;;;;;0.37;0.37;;;11.10;99.90;;;;;;1914278;75;21066;-75
2021/05/22 00:37:21;;;;;;;5.05;0.30;;;11.10;99.90;;;;;;1914303;75;21062;-75
2021/05/22 00:39:47;;;;;;;1.17;0.50;;;11.10;99.90;;;;;;1914302;75;21046;-74
2021/05/22 00:42:13;;;;;;;0.30;0.30;;;11.00;99.90;;;;;;1914452;75;21039;-75
2021/05/22 00:44:40;;;;;;;1.85;0.20;;;11.00;99.90;;;;;;1914222;75;21066;-75
2021/05/22 00:47:06;;;;;;;0.13;0.13;;;11.00;99.90;;;;;;1914357;75;21576;-75
2021/05/22 00:49:32;;;;;;;0.53;0.35;;;10.90;99.90;;;;;;1914368;75;21474;-75
2021/05/22 00:51:58;;;;;;;0.20;0.20;;;11.00;99.90;;;;;;1914281;75;21411;-76
2021/05/22 00:54:24;;;;;;;0.65;0.20;;;10.90;99.90;;;;;;1914451;75;21490;-75
2021/05/22 00:56:50;;;;;;;0.50;0.40;;;10.90;99.90;;;;;;1914188;75;21501;-75
2021/05/22 00:59:18;;;;;;;0.40;0.30;;;10.90;99.90;;;;;;1914461;75;21066;-74
2021/05/22 01:01:44;;;;;;;1.20;0.40;;;10.90;99.90;;;;;;1914275;75;21082;-74
2021/05/22 01:04:10;;;;;;;0.20;0.20;;;10.90;99.90;;;;;;1914458;75;21058;-75
2021/05/22 01:06:36;;;;;;;0.50;0.35;;;10.90;99.90;;;;;;1914302;75;21462;-75
2021/05/22 01:09:05;;;;;;;1.55;0.50;;;10.80;99.90;;;;;;1914416;75;21576;-75
2021/05/22 01:11:30;;;;;;;2.77;0.30;;;10.80;99.90;;;;;;1914334;75;21070;-75
2021/05/22 01:13:57;;;;;;;0.50;0.30;;;10.80;99.90;;;;;;1914278;75;21066;-75
2021/05/22 01:16:24;;;;;;;0.30;0.30;;;10.80;99.90;;;;;;1914616;75;21117;-76
2021/05/22 01:18:50;;;;;;;1.65;0.75;;;10.80;99.90;;;;;;1914477;75;21131;-76
2021/05/22 01:21:16;;;;;;;5.15;0.40;;;10.80;99.90;;;;;;1914194;75;21074;-76
2021/05/22 01:23:42;;;;;;;1.52;0.60;;;10.80;99.90;;;;;;1914356;75;21086;-76
2021/05/22 01:26:08;;;;;;;0.42;0.33;;;10.80;99.90;;;;;;1914675;75;21136;-76
2021/05/22 01:28:35;;;;;;;0.60;0.42;;;10.80;99.90;;;;;;1914833;75;21119;-75
2021/05/22 01:31:01;;;;;;;0.20;0.20;;;10.80;99.90;;;;;;1915316;75;21071;-75
2021/05/22 01:33:27;;;;;;;0.75;0.50;;;10.80;99.90;;;;;;1915667;75;21011;-75
2021/05/22 01:35:53;;;;;;;0.62;0.20;;;10.70;99.90;;;;;;1917048;75;21122;-77
2021/05/22 01:38:19;;;;;;;0.30;0.30;;;10.80;99.90;;;;;;1916024;75;21062;-77
2021/05/22 01:40:46;;;;;;;0.80;0.45;;;10.70;99.90;;;;;;1916086;75;21038;-76
2021/05/22 01:43:12;;;;;;;0.98;0.40;;;10.70;99.90;;;;;;1914841;75;21148;-76
2021/05/22 01:45:40;;;;;;;0.30;0.30;;;10.70;99.90;;;;;;1914340;75;21044;-75
2021/05/22 01:48:06;;;;;;;0.95;0.30;;;10.70;99.90;;;;;;1914739;75;21090;-76
2021/05/22 01:50:32;;;;;;;2.42;0.40;;;10.70;99.90;;;;;;1914924;75;21054;-75
2021/05/22 01:52:58;;;;;;;0.72;0.60;;;10.70;99.90;;;;;;1914512;75;21034;-76
2021/05/22 01:55:24;;;;;;;0.30;0.30;;;10.70;99.90;;;;;;1914605;75;21039;-76
2021/05/22 01:57:50;;;;;;;0.50;0.40;;;10.80;99.90;;;;;;1914497;75;21140;-75
2021/05/22 02:00:16;;;;;;;1.30;0.20;;;10.80;99.90;;;;;;1914332;75;21027;-76
2021/05/22 02:02:42;;;;;;;0.65;0.35;;;10.80;99.90;;;;;;1914276;75;21180;-76
2021/05/22 02:05:09;;;;;;;0.53;0.20;;;10.80;99.90;;;;;;1914291;75;21043;-76
2021/05/22 02:07:36;;;;;;;0.30;0.30;;;10.80;99.90;;;;;;1914350;75;21086;-76
2021/05/22 02:10:02;;;;;;;0.15;0.15;;;10.80;99.90;;;;;;1914554;75;21113;-76
2021/05/22 02:12:28;;;;;;;3.58;0.47;;;10.80;99.90;;;;;;1914555;75;21124;-76
2021/05/22 02:14:55;;;;;;;5.05;0.60;;;10.90;99.90;;;;;;1914566;75;21039;-76
2021/05/22 02:17:21;;;;;;;1.40;0.30;;;10.90;99.90;;;;;;1914518;75;21117;-76
2021/05/22 02:19:47;;;;;;;0.30;0.30;;;10.90;99.90;;;;;;1914461;75;21128;-76
2021/05/22 02:22:13;;;;;;;0.20;0.20;;;11.00;99.90;;;;;;1914541;75;21114;-76
2021/05/22 02:24:39;;;;;;;0.45;0.30;;;11.00;99.90;;;;;;1914452;75;21526;-76
2021/05/22 02:27:05;;;;;;;0.85;0.30;;;11.00;99.90;;;;;;1914465;75;21451;-76
2021/05/22 02:29:31;;;;;;;0.47;0.30;;;11.00;99.90;;;;;;1914309;75;21070;-76
2021/05/22 02:31:58;;;;;;;0.20;0.20;;;11.00;99.90;;;;;;1914581;75;21117;-76
2021/05/22 02:34:24;;;;;;;2.08;0.47;;;11.00;99.90;;;;;;1914355;75;21074;-76
2021/05/22 02:36:50;;;;;;;2.67;0.62;;;11.00;99.90;;;;;;1914562;75;21039;-76
2021/05/22 02:39:16;;;;;;;0.45;0.30;;;11.00;99.90;;;;;;1914341;75;21066;-76
2021/05/22 02:41:42;;;;;;;4.17;0.60;;;11.00;99.90;;;;;;1914539;75;21066;-76
2021/05/22 02:44:08;;;;;;;1.05;0.35;;;10.90;99.90;;;;;;1914440;75;21029;-77
2021/05/22 02:46:35;;;;;;;0.42;0.40;;;10.90;99.90;;;;;;1914458;75;21039;-76
2021/05/22 02:49:01;;;;;;;2.27;0.37;;;11.00;99.90;;;;;;1914406;75;21086;-77
2021/05/22 02:51:27;;;;;;;0.40;0.25;;;11.00;99.90;;;;;;1914445;75;21191;-76
2021/05/22 02:53:53;;;;;;;0.68;0.50;;;10.90;99.90;;;;;;1914538;75;21509;-76
2021/05/22 02:56:19;;;;;;;1.40;0.40;;;10.80;99.90;;;;;;1914351;75;21494;-76
2021/05/22 02:58:45;;;;;;;3.33;0.95;;;10.50;99.90;;;;;;1914562;75;21540;-76
2021/05/22 03:01:11;;;;;;;0.98;0.40;;;10.30;99.90;;;;;;1914383;75;21548;-76
2021/05/22 03:03:37;;;;;;;2.95;0.60;;;10.10;99.90;;;;;;1914860;75;21450;-76
2021/05/22 03:06:04;;;;;;;3.85;0.50;;;10.00;99.90;;;;;;1914620;75;21133;-76
2021/05/22 03:08:30;;;;;;;2.08;0.47;;;10.10;99.90;;;;;;1914522;75;21144;-76
2021/05/22 03:10:56;;;;;;;0.50;0.40;;;10.00;99.90;;;;;;1914541;75;21074;-75
2021/05/22 03:13:22;;;;;;;1.00;0.53;;;9.90;99.90;;;;;;1914541;75;21136;-76
2021/05/22 03:15:48;;;;;;;0.75;0.55;;;9.80;99.90;;;;;;1914437;75;21034;-76
2021/05/22 03:18:14;;;;;;;0.40;0.40;;;9.70;99.90;;;;;;1914543;75;21043;-76
2021/05/22 03:20:40;;;;;;;0.37;0.37;;;9.70;99.90;;;;;;1914858;75;21147;-76
2021/05/22 03:23:06;;;;;;;2.00;0.60;;;9.60;99.90;;;;;;1914799;75;21070;-77
2021/05/22 03:25:33;;;;;;;1.32;0.50;;;9.40;99.90;;;;;;1914764;75;21118;-76
2021/05/22 03:27:59;;;;;;;1.12;0.50;;;9.40;99.90;;;;;;1914773;75;21136;-76
2021/05/22 03:30:25;;;;;;;3.00;0.53;;;9.30;99.90;;;;;;1914457;75;21078;-76
2021/05/22 03:32:51;;;;;;;1.20;0.30;;;9.30;99.90;;;;;;1914668;75;21117;-76
2021/05/22 03:35:17;;;;;;;0.23;0.23;;;9.20;99.90;;;;;;1914413;73;21082;-76
2021/05/22 03:37:43;;;;;;;2.08;0.70;;;9.20;99.90;;;;;;1914646;75;21125;-76
2021/05/22 03:40:09;;;;;;;1.50;0.40;;;9.20;99.90;;;;;;1914602;75;21474;-76
2021/05/22 03:42:35;;;;;;;2.12;0.60;;;9.20;99.90;;;;;;1914586;75;21506;-76
2021/05/22 03:45:02;;;;;;;2.52;0.40;;;9.40;99.90;;;;;;1914572;75;21067;-76
2021/05/22 03:47:28;;;;;;;1.92;0.70;;;9.50;99.90;;;;;;1914558;75;21128;-76
2021/05/22 03:49:54;;;;;;;1.12;0.47;;;9.50;99.90;;;;;;1914694;75;21043;-76
2021/05/22 03:52:20;;;;;;;0.60;0.40;;;9.50;99.90;;;;;;1914669;75;21063;-76
2021/05/22 03:54:46;;;;;;;1.98;0.55;;;9.60;99.90;;;;;;1914708;75;21063;-75
2021/05/22 03:57:13;;;;;;;0.80;0.40;;;9.70;99.90;;;;;;1914521;75;21601;-76
2021/05/22 03:59:39;;;;;;;1.20;0.50;;;9.80;99.90;;;;;;1914727;75;21074;-76
2021/05/22 04:02:05;;;;;;;1.85;0.42;;;9.80;99.90;;;;;;1914519;75;21055;-75
2021/05/22 04:04:31;;;;;;;2.17;0.40;;;9.90;99.90;;;;;;1914622;75;21071;-76
2021/05/22 04:06:57;;;;;;;0.50;0.20;;;9.90;99.90;;;;;;1914441;75;21039;-76
2021/05/22 04:09:23;;;;;;;1.87;0.50;;;10.00;99.90;;;;;;1914605;75;21178;-76
2021/05/22 04:11:49;;;;;;;0.30;0.20;;;9.90;99.90;;;;;;1914641;75;21132;-75
2021/05/22 04:14:15;;;;;;;1.32;0.37;;;10.00;99.90;;;;;;1914735;75;21144;-76
2021/05/22 04:16:41;;;;;;;0.75;0.50;;;10.00;99.90;;;;;;1914732;75;21136;-76
2021/05/22 04:19:08;;;;;;;1.30;0.55;;;10.10;99.90;;;;;;1914718;75;21039;-76
2021/05/22 04:21:34;;;;;;;2.45;0.60;;;10.10;99.90;;;;;;1914716;75;21148;-76
2021/05/22 04:24:00;;;;;;;4.50;0.45;;;10.20;99.90;;;;;;1914424;75;21063;-76
2021/05/22 04:26:26;;;;;;;0.78;0.42;;;10.20;99.90;;;;;;1914653;75;21074;-76
2021/05/22 04:28:52;;;;;;;0.85;0.33;;;10.20;99.90;;;;;;1914508;75;21064;-76
2021/05/22 04:31:18;;;;;;;1.55;0.33;;;10.20;99.90;;;;;;1914481;75;21138;-76
2021/05/22 04:33:44;;;;;;;0.20;0.20;;;10.10;99.90;;;;;;1914708;75;21078;-76
2021/05/22 04:36:11;;;;;;;0.70;0.50;;;10.00;99.90;;;;;;1914508;75;21062;-76
2021/05/22 04:38:37;;;;;;;0.47;0.37;;;9.90;99.90;;;;;;1914514;75;21071;-76
2021/05/22 04:41:03;;;;;;;3.58;0.60;;;9.90;99.90;;;;;;1914517;75;21083;-76
2021/05/22 04:43:29;;;;;;;3.12;0.50;;;10.00;99.90;;;;;;1914527;75;21074;-75
2021/05/22 04:45:55;;;;;;;1.12;0.33;;;9.90;99.90;;;;;;1914539;75;21066;-76
2021/05/22 04:48:21;;;;;;;0.40;0.40;;;9.90;99.90;;;;;;1914598;75;21074;-76
2021/05/22 04:50:47;;;;;;;0.82;0.30;;;9.80;99.90;;;;;;1914591;75;21078;-76
2021/05/22 04:53:13;;;;;;;1.77;0.62;;;9.80;99.90;;;;;;1914518;75;21094;-75
2021/05/22 04:55:39;;;;;;;2.42;0.33;;;9.80;99.90;;;;;;1914612;75;21074;-75
2021/05/22 04:58:06;;;;;;;0.45;0.30;;;9.70;99.90;;;;;;1914530;75;21128;-75
2021/05/22 05:00:32;;;;;;;0.20;0.17;;;9.60;99.90;;;;;;1914486;75;21144;-76
2021/05/22 05:02:58;;;;;;;0.23;0.23;;;9.60;99.90;;;;;;1914515;75;21078;-76
2021/05/22 05:05:24;;;;;;;0.93;0.40;;;9.60;99.90;;;;;;1914492;75;21070;-76
2021/05/22 05:07:50;;;;;;;1.85;0.30;;;9.70;99.90;;;;;;1914524;75;21129;-76
2021/05/22 05:10:16;;;;;;;0.33;0.30;;;9.90;99.90;;;;;;1914482;75;21047;-76
2021/05/22 05:12:43;;;;;;;0.72;0.30;;;10.10;99.90;;;;;;1914485;75;21129;-76
2021/05/22 05:15:09;;;;;;;1.85;0.45;;;10.30;99.90;;;;;;1914597;75;21074;-76
2021/05/22 05:17:35;;;;;;;0.62;0.50;;;10.30;99.90;;;;;;1914470;75;21215;-76
2021/05/22 05:20:01;;;;;;;0.20;0.20;;;10.40;99.90;;;;;;1914505;75;21039;-76
2021/05/22 05:22:27;;;;;;;5.03;0.40;;;10.20;99.90;;;;;;1914635;75;21072;-76
2021/05/22 05:24:53;;;;;;;3.77;0.50;;;10.00;99.90;;;;;;1914410;75;21106;-76
2021/05/22 05:27:19;;;;;;;0.90;0.25;;;10.20;99.90;;;;;;1914550;74;21067;-76
2021/05/22 05:29:45;;;;;;;0.57;0.30;;;10.30;99.90;;;;;;1914522;75;21051;-76
2021/05/22 05:32:12;;;;;;;0.88;0.30;;;10.50;99.90;;;;;;1914478;75;21144;-76
2021/05/22 05:34:38;;;;;;;1.27;0.40;;;10.90;99.90;;;;;;1914595;75;21078;-76
2021/05/22 05:37:04;;;;;;;0.50;0.50;;;11.40;99.90;;;;;;1914487;75;21082;-76
2021/05/22 05:39:30;;;;;;;1.22;0.40;;;11.60;99.90;;;;;;1914548;75;21439;-76
2021/05/22 05:41:56;;;;;;;0.33;0.33;;;11.80;99.90;;;;;;1914373;75;21577;-76
2021/05/22 05:44:22;;;;;;;0.40;0.30;;;11.80;99.90;;;;;;1914633;75;21516;-76
2021/05/22 05:46:48;;;;;;;0.82;0.40;;;11.50;99.90;;;;;;1914577;75;21483;-76
2021/05/22 05:49:14;;;;;;;1.45;0.40;;;11.70;99.90;;;;;;1914343;75;21451;-76
2021/05/22 05:51:41;;;;;;;2.58;0.55;;;11.60;99.90;;;;;;1914583;75;21502;-76
2021/05/22 05:54:07;;;;;;;3.37;0.42;;;11.40;99.90;;;;;;1914409;75;21132;-76
2021/05/22 05:56:33;;;;;;;1.25;0.42;;;11.60;99.90;;;;;;1914576;75;21063;-76
2021/05/22 05:58:59;;;;;;;3.27;0.80;;;11.70;99.90;;;;;;1914478;75;21011;-76
2021/05/22 06:01:25;;;;;;;4.03;0.60;;;11.80;99.90;;;;;;1914470;75;21129;-76
2021/05/22 06:03:51;;;;;;;0.33;0.30;;;11.90;99.90;;;;;;1914484;75;21067;-76
2021/05/22 06:06:17;;;;;;;0.75;0.30;;;12.10;99.90;;;;;;1914680;75;21130;-76
2021/05/22 06:08:43;;;;;;;0.30;0.30;;;12.40;99.90;;;;;;1914473;75;21102;-76
2021/05/22 06:11:12;;;;;;;0.80;0.42;;;12.60;99.90;;;;;;1914475;75;21170;-76
2021/05/22 06:13:37;;;;;;;3.30;0.45;;;13.10;99.90;;;;;;1914006;75;21091;-76
2021/05/22 06:18:37;;;;;;;1.52;0.57;;;14.10;99.90;;;;;;1918811;74;21176;-77
2021/05/22 06:21:03;;;;;;;5.40;0.90;;;14.40;99.90;;;;;;1920072;74;21192;-76
2021/05/22 06:23:29;;;;;;;1.47;0.65;;;15.40;99.90;;;;;;1925187;74;21074;-77
2021/05/22 06:25:55;;;;;;;3.67;0.70;;;15.80;99.90;;;;;;1914562;75;21063;-77
2021/05/22 06:28:22;;;;;;;4.20;0.62;;;15.50;99.90;;;;;;1914408;75;21153;-75
2021/05/22 06:30:48;;;;;;;0.35;0.35;;;15.50;99.90;;;;;;1914505;75;21062;-75
2021/05/22 06:33:14;;;;;;;2.30;0.55;;;15.60;99.90;;;;;;1914335;75;21105;-75
2021/05/22 06:35:41;;;;;;;8.98;0.80;;;15.80;99.90;;;;;;1914496;75;21075;-75
2021/05/22 06:38:07;;;;;;;3.70;0.90;;;16.30;99.90;;;;;;1914415;75;21128;-76
2021/05/22 06:40:33;;;;;;;1.75;0.53;;;16.30;99.90;;;;;;1914571;75;21105;-76
2021/05/22 06:43:00;;;;;;;3.45;0.78;;;16.30;99.90;;;;;;1914710;75;21063;-76
2021/05/22 06:45:28;;;;;;;0.78;0.40;;;16.60;99.90;;;;;;1914493;75;21066;-76
2021/05/22 06:47:53;;;;;;;4.15;0.65;;;16.00;99.90;;;;;;1914490;75;21117;-76
2021/05/22 06:50:20;;;;;;;1.42;0.40;;;16.20;99.90;;;;;;1914337;75;21063;-75
2021/05/22 06:52:46;;;;;;;4.03;0.57;;;16.30;99.90;;;;;;1914517;75;21066;-76
2021/05/22 06:55:12;;;;;;;4.58;0.60;;;15.70;99.90;;;;;;1914513;75;21144;-76
2021/05/22 06:57:38;;;;;;;1.37;0.80;;;16.40;99.90;;;;;;1911577;74;21078;-76
2021/05/22 07:00:04;;;;;;;3.92;0.60;;;16.00;99.90;;;;;;1914647;75;21052;-76
2021/05/22 07:02:30;;;;;;;3.62;0.60;;;15.70;99.90;;;;;;1914571;75;21136;-76
2021/05/22 07:04:56;;;;;;;4.37;0.93;;;15.40;99.90;;;;;;1914533;75;21074;-76
2021/05/22 07:07:22;;;;;;;1.22;0.60;;;16.60;99.90;;;;;;1914540;75;21148;-76
2021/05/22 07:09:49;;;;;;;1.77;0.60;;;15.80;99.90;;;;;;1914546;75;21051;-76
2021/05/22 07:12:15;;;;;;;0.82;0.57;;;15.80;99.90;;;;;;1914539;75;21086;-75
2021/05/22 07:14:41;;;;;;;5.30;1.07;;;15.10;99.90;;;;;;1914674;75;21155;-76
2021/05/22 07:17:07;;;;;;;5.47;0.75;;;15.00;99.90;;;;;;1914585;75;21498;-76
2021/05/22 07:19:33;;;;;;;8.43;0.82;;;14.50;99.90;;;;;;1914347;75;21533;-76
2021/05/22 07:21:59;;;;;;;3.80;0.82;;;14.10;99.90;;;;;;1914453;75;21455;-76
2021/05/22 07:24:25;;;;;;;2.10;0.70;;;13.90;99.90;;;;;;1914520;75;21494;-76
2021/05/22 07:26:52;;;;;;;2.80;0.70;;;13.90;99.90;;;;;;1914503;75;21515;-76
2021/05/22 07:29:18;;;;;;;3.55;0.80;;;13.90;99.90;;;;;;1914487;75;21082;-75
2021/05/22 07:31:44;;;;;;;1.17;0.70;;;13.70;99.90;;;;;;1914485;75;21094;-75
2021/05/22 07:34:10;;;;;;;1.15;0.60;;;13.80;99.90;;;;;;1914490;75;21564;-75
2021/05/22 07:36:36;;;;;;;13.83;2.25;;;13.90;99.90;;;;;;1914499;75;21508;-75
2021/05/22 07:39:02;;;;;;;1.77;0.68;;;13.90;99.90;;;;;;1914597;75;21584;-75
2021/05/22 07:41:29;;;;;;;3.02;0.88;;;13.90;99.90;;;;;;1914643;75;21448;-76
2021/05/22 07:43:55;;;;;;;1.87;0.65;;;13.90;99.90;;;;;;1914521;75;21505;-76
2021/05/22 07:46:21;;;;;;;4.05;0.70;;;14.30;99.90;;;;;;1914618;75;21081;-76
2021/05/22 07:48:47;;;;;;;2.12;0.45;;;15.20;99.90;;;;;;1914432;75;21074;-76
2021/05/22 07:51:15;;;;;;;0.60;0.50;;;15.50;99.90;;;;;;1914459;75;21043;-76
2021/05/22 07:53:41;;;;;;;4.65;0.90;;;15.80;99.90;;;;;;1914514;75;21478;-76
2021/05/22 07:56:07;;;;;;;3.75;0.72;;;15.50;99.90;;;;;;1914517;75;21573;-76
2021/05/22 07:58:33;;;;;;;2.70;0.62;;;15.60;99.90;;;;;;1914489;75;21796;-75
2021/05/22 08:00:59;;;;;;;4.12;0.90;;;15.70;99.90;;;;;;1914403;75;21411;-76
2021/05/22 08:03:25;;;;;;;2.90;0.55;;;16.40;99.90;;;;;;1914478;75;21501;-76
2021/05/22 08:05:51;;;;;;;3.10;0.47;;;16.60;99.90;;;;;;1914427;75;21412;-76
2021/05/22 08:08:18;;;;;;;1.07;0.62;;;15.90;99.90;;;;;;1914504;75;21136;-76
2021/05/22 08:10:44;;;;;;;1.45;0.62;;;16.30;99.90;;;;;;1914327;75;21086;-76
2021/05/22 08:13:10;;;;;;;3.58;0.50;;;16.10;99.90;;;;;;1914512;75;21062;-76
2021/05/22 08:15:36;;;;;;;4.08;0.60;;;16.20;99.90;;;;;;1914390;75;21124;-75
2021/05/22 08:18:02;;;;;;;4.33;0.80;;;16.30;99.90;;;;;;1913148;74;21148;-76
2021/05/22 08:20:29;;;;;;;1.40;0.40;;;16.10;99.90;;;;;;1914465;75;21144;-76
2021/05/22 08:22:55;;;;;;;1.40;0.60;;;16.10;99.90;;;;;;1914319;75;21226;-76
2021/05/22 08:25:21;;;;;;;1.40;0.45;;;16.20;99.90;;;;;;1914159;75;21082;-76
2021/05/22 08:27:49;;;;;;;1.50;0.60;;;16.30;99.90;;;;;;1914277;75;21140;-76
2021/05/22 08:30:15;;;;;;;1.30;0.55;;;16.10;99.90;;;;;;1914057;75;21155;-76
2021/05/22 08:32:41;;;;;;;2.00;0.62;;;15.80;99.90;;;;;;1914163;75;21494;-75
2021/05/22 08:35:07;;;;;;;4.87;0.60;;;16.10;99.90;;;;;;1914200;75;21121;-75
2021/05/22 08:37:34;;;;;;;1.20;0.57;;;16.20;99.90;;;;;;1914203;75;21168;-76
2021/05/22 08:40:00;;;;;;;5.17;0.60;;;16.50;99.90;;;;;;1914420;75;21150;-76
2021/05/22 08:42:26;;;;;;;3.62;0.62;;;16.30;99.90;;;;;;1914144;75;21070;-77
2021/05/22 08:44:52;;;;;;;1.47;0.47;;;16.40;99.90;;;;;;1914269;75;21039;-77
2021/05/22 08:47:18;;;;;;;2.30;0.60;;;16.60;99.90;;;;;;1914129;75;21063;-76
2021/05/22 08:49:44;;;;;;;0.98;0.57;;;16.90;99.90;;;;;;1914239;75;21183;-76
2021/05/22 08:52:12;;;;;;;2.42;0.70;;;17.10;99.90;;;;;;1914191;75;21128;-77
2021/05/22 08:54:38;;;;;;;7.75;0.40;;;16.90;99.90;;;;;;1914082;75;21250;-77
2021/05/22 08:57:04;;;;;;;2.15;0.60;;;16.80;99.90;;;;;;1914352;75;21110;-76
2021/05/22 08:59:30;;;;;;;0.40;0.40;;;16.50;99.90;;;;;;1912896;74;21225;-77
2021/05/22 09:01:57;;;;;;;0.95;0.40;;;16.70;99.90;;;;;;1914243;75;21062;-76
2021/05/22 09:04:23;;;;;;;4.45;0.80;;;16.60;99.90;;;;;;1914220;75;21486;-76
2021/05/22 09:06:49;;;;;;;2.05;0.60;;;16.60;99.90;;;;;;1914089;73;21052;-77
2021/05/22 09:09:15;;;;;;;3.20;1.15;;;16.60;99.90;;;;;;1914379;75;21165;-77
2021/05/22 09:11:41;;;;;;;1.35;0.50;;;16.30;99.90;;;;;;1914238;75;21066;-76
2021/05/22 09:14:07;;;;;;;4.35;0.40;;;16.40;99.90;;;;;;1914188;75;21066;-77
2021/05/22 09:16:35;;;;;;;1.80;0.60;;;16.20;99.90;;;;;;1914419;75;21031;-77
2021/05/22 09:19:01;;;;;;;1.45;0.57;;;16.20;99.90;;;;;;1914265;75;21037;-77
2021/05/22 09:21:27;;;;;;;1.57;0.57;;;16.30;99.90;;;;;;1914191;75;21124;-76
2021/05/22 09:23:53;;;;;;;4.47;0.80;;;16.00;99.90;;;;;;1914232;75;21074;-75
2021/05/22 09:26:20;;;;;;;4.20;0.47;;;16.20;99.90;;;;;;1914598;75;21124;-76
2021/05/22 09:28:46;;;;;;;0.93;0.57;;;16.50;99.90;;;;;;1914234;75;21066;-76
2021/05/22 09:31:13;;;;;;;5.22;0.60;;;16.70;99.90;;;;;;1914214;75;21498;-77
2021/05/22 09:33:39;;;;;;;1.25;0.47;;;16.90;99.90;;;;;;1914255;75;21072;-77
2021/05/22 09:36:07;;;;;;;2.98;0.82;;;16.90;99.90;;;;;;1914184;75;21074;-76
2021/05/22 09:38:34;;;;;;;1.07;0.40;;;17.00;99.90;;;;;;1914046;75;21227;-77
2021/05/22 09:41:00;;;;;;;1.00;0.40;;;17.20;99.90;;;;;;1914255;75;21071;-77
2021/05/22 09:43:26;;;;;;;1.55;0.40;;;17.20;99.90;;;;;;1914315;75;21067;-77
2021/05/22 09:45:52;;;;;;;1.90;0.40;;;17.40;99.70;;;;;;1914081;75;21140;-76
2021/05/22 09:48:18;;;;;;;2.27;0.55;;;17.40;99.00;;;;;;1914260;75;21133;-76
2021/05/22 09:50:44;;;;;;;1.37;0.50;;;17.30;98.50;;;;;;1917737;74;21141;-77
2021/05/22 09:53:10;;;;;;;4.92;0.57;;;17.20;99.80;;;;;;1915715;74;21498;-77
2021/05/22 09:55:37;;;;;;;0.53;0.30;;;17.50;99.70;;;;;;1914295;75;21075;-77
2021/05/22 09:58:03;;;;;;;4.10;0.75;;;17.40;99.90;;;;;;1914244;75;21067;-77
2021/05/22 10:00:29;;;;;;;0.37;0.37;;;17.50;99.60;;;;;;1914138;75;21128;-77
2021/05/22 10:02:56;;;;;;;4.83;0.62;;;17.70;97.20;;;;;;1914239;75;21144;-77
2021/05/22 10:05:23;;;;;;;5.30;0.62;;;17.00;98.70;;;;;;1914296;75;21459;-77
2021/05/22 10:07:49;;;;;;;0.28;0.25;;;17.20;97.90;;;;;;1914340;75;21121;-78
2021/05/22 10:10:15;;;;;;;2.37;0.50;;;17.60;97.50;;;;;;1914173;75;21093;-77
2021/05/22 10:12:41;;;;;;;1.82;0.60;;;17.60;96.10;;;;;;1914144;75;21071;-78
2021/05/22 10:15:09;;;;;;;0.53;0.40;;;17.80;96.00;;;;;;1914191;75;21143;-78
2021/05/22 10:17:37;;;;;;;2.70;0.75;;;17.90;94.40;;;;;;1914264;75;21179;-77
2021/05/22 10:20:03;;;;;;;1.47;0.45;;;18.10;95.00;;;;;;1914619;75;21074;-78
2021/05/22 10:22:30;;;;;;;2.70;0.50;;;18.20;94.70;;;;;;1914249;75;21120;-76
2021/05/22 10:24:57;;;;;;;1.17;0.55;;;18.60;94.90;;;;;;1914267;75;21066;-76
2021/05/22 10:27:23;;;;;;;0.93;0.40;;;18.30;93.70;;;;;;1914122;75;21487;-76
2021/05/22 10:29:49;;;;;;;1.42;0.60;;;18.40;92.50;;;;;;1914086;75;21564;-77
2021/05/22 10:32:15;;;;;;;0.40;0.28;;;18.00;92.40;;;;;;1914308;75;21446;-77
2021/05/22 10:34:41;;;;;;;3.22;1.00;;;17.80;92.80;;;;;;1914254;75;21490;-76
2021/05/22 10:37:07;;;;;;;2.25;0.40;;;17.80;92.10;;;;;;1914209;75;21124;-76
2021/05/22 10:39:34;;;;;;;2.50;0.55;;;17.30;93.00;;;;;;1914242;75;21124;-77
2021/05/22 10:42:00;;;;;;;1.42;0.50;;;17.50;94.40;;;;;;1914269;75;21031;-76
2021/05/22 10:44:26;;;;;;;1.65;0.72;;;17.50;93.90;;;;;;1914257;75;21140;-76
2021/05/22 10:46:52;;;;;;;1.12;0.50;;;17.80;94.30;;;;;;1914320;75;21070;-77
2021/05/22 10:49:18;;;;;;;0.90;0.40;;;18.00;93.20;;;;;;1914443;75;21074;-77
2021/05/22 10:51:44;;;;;;;2.37;0.42;;;18.00;93.20;;;;;;1914243;75;21184;-78
2021/05/22 10:54:13;;;;;;;2.72;0.50;;;17.70;93.20;;;;;;1914418;75;21132;-78
2021/05/22 10:56:40;;;;;;;1.42;0.50;;;17.90;93.40;;;;;;1914179;75;21092;-79
2021/05/22 10:59:10;;;;;;;2.85;0.40;;;17.70;92.60;;;;;;1914378;75;21095;-78
2021/05/22 11:01:37;;;;;;;1.75;0.65;;;17.30;93.90;;;;;;1913056;75;21099;-79
2021/05/22 11:04:06;;;;;;;1.22;0.60;;;17.20;94.80;;;;;;1914624;75;21039;-76
2021/05/22 11:06:31;;;;;;;3.22;0.60;;;17.60;94.80;;;;;;1914076;75;21058;-78
2021/05/22 11:08:58;;;;;;;0.95;0.50;;;18.00;94.40;;;;;;1914154;75;21144;-78
2021/05/22 11:11:24;;;;;;;3.65;0.60;;;18.20;93.10;;;;;;1914320;75;21063;-79
2021/05/22 11:13:50;;;;;;;5.33;0.78;;;17.70;94.30;;;;;;1914123;75;21039;-76
2021/05/22 11:16:16;;;;;;;1.60;0.45;;;18.40;94.20;;;;;;1914077;75;21062;-78
2021/05/22 11:18:43;;;;;;;3.40;0.55;;;18.20;92.90;;;;;;1914180;75;21063;-78
2021/05/22 11:21:09;;;;;;;4.08;0.35;;;18.00;92.80;;;;;;1914058;75;21059;-78
2021/05/22 11:23:35;;;;;;;3.40;0.60;;;17.70;93.50;;;;;;1914146;75;21183;-77
2021/05/22 11:26:01;;;;;;;1.82;0.47;;;17.30;92.90;;;;;;1914121;75;21062;-77
2021/05/22 11:28:28;;;;;;;0.75;0.20;;;17.30;92.90;;;;;;1914508;75;21035;-77
2021/05/22 11:30:54;;;;;;;2.60;0.50;;;17.50;92.20;;;;;;1914591;75;21062;-77
2021/05/22 11:33:20;;;;;;;0.50;0.33;;;18.00;91.90;;;;;;1914584;75;21451;-77
2021/05/22 11:35:48;;;;;;;1.42;0.40;;;18.30;86.70;;;;;;1914129;75;21540;-78
2021/05/22 11:38:14;;;;;;;0.88;0.50;;;18.20;85.00;;;;;;1914284;75;21168;-77
2021/05/22 11:40:40;;;;;;;2.35;0.68;;;17.80;87.40;;;;;;1914160;75;21031;-78
2021/05/22 11:43:06;;;;;;;4.50;0.40;;;17.60;88.70;;;;;;1914376;75;21074;-77
2021/05/22 11:45:32;;;;;;;3.90;0.50;;;18.30;86.70;;;;;;1914237;75;21125;-77
2021/05/22 11:47:58;;;;;;;1.07;0.37;;;18.80;83.60;;;;;;1914503;75;21062;-78
2021/05/22 11:50:28;;;;;;;2.60;0.50;;;18.50;84.00;;;;;;1914323;75;21102;-78
2021/05/22 11:52:53;;;;;;;1.95;0.60;;;18.60;85.30;;;;;;1914328;75;21050;-78
2021/05/22 11:55:22;;;;;;;0.95;0.40;;;18.70;85.00;;;;;;1915421;74;21078;-78
2021/05/22 11:57:48;;;;;;;0.88;0.47;;;18.50;84.40;;;;;;1917844;73;21052;-78
2021/05/22 12:00:14;;;;;;;0.95;0.30;;;18.00;86.00;;;;;;1917923;73;21059;-79
2021/05/22 12:02:41;;;;;;;0.47;0.47;;;17.80;87.60;;;;;;1918212;74;21121;-78
2021/05/22 12:05:07;;;;;;;0.70;0.28;;;17.70;86.50;;;;;;1916259;75;21111;-78
2021/05/22 12:07:33;;;;;;;0.82;0.30;;;17.80;87.10;;;;;;1914504;75;21058;-78
2021/05/22 12:09:59;;;;;;;1.65;0.80;;;17.90;85.00;;;;;;1914414;75;21066;-77
2021/05/22 12:12:25;;;;;;;1.77;0.57;;;18.50;85.50;;;;;;1914300;75;21102;-78
2021/05/22 12:14:52;;;;;;;1.55;0.68;;;18.90;83.90;;;;;;1914250;75;21128;-78
2021/05/22 12:17:19;;;;;;;0.68;0.28;;;18.30;81.60;;;;;;1914273;75;21063;-78
2021/05/22 12:19:45;;;;;;;0.68;0.23;;;18.00;83.00;;;;;;1914286;75;21121;-78
2021/05/22 12:22:12;;;;;;;0.57;0.35;;;18.20;81.80;;;;;;1914382;75;21427;-78
2021/05/22 12:24:38;;;;;;;1.17;0.30;;;18.40;81.50;;;;;;1914161;75;21148;-77
2021/05/22 12:27:04;;;;;;;5.92;0.55;;;18.00;80.70;;;;;;1914135;75;21577;-78
2021/05/22 12:29:31;;;;;;;1.35;0.60;;;18.00;81.10;;;;;;1914146;75;21464;-78
2021/05/22 12:32:01;;;;;;;1.75;0.60;;;18.40;81.60;;;;;;1914265;75;21074;-77
2021/05/22 12:34:25;;;;;;;0.98;0.40;;;18.90;81.30;;;;;;1912620;75;21146;-77
2021/05/22 12:36:51;;;;;;;0.42;0.23;;;19.70;80.20;;;;;;1914301;75;21039;-77
2021/05/22 12:39:17;;;;;;;3.12;0.25;;;20.60;76.10;;;;;;1914126;75;21132;-77
2021/05/22 12:41:43;;;;;;;4.33;0.60;;;20.30;75.10;;;;;;1914228;75;21074;-77
2021/05/22 12:44:10;;;;;;;4.95;0.62;;;19.30;73.20;;;;;;1914270;75;21141;-77